Time;durP1;ratioP1;P1;durP2;ratioP2;P2;SDS_P1;SDS_P2;PMS_P1;PMS_P2;Temp;Humidity;BMP_temperature;BMP_pressure;BME280_temperature;BME280_humidity;BME280_pressure;Samples;Min_cycle;Max_cycle;Signal;HPM_P1;HPM_P2
2023/08/05 00:00:06;;;;;;;;;;;;;;;11.20;55.44;95561.22;5002839;28;20004;-70
2023/08/05 00:02:31;;;;;;;;;;;;;;;10.91;56.14;95568.16;5001496;28;19924;-72
2023/08/05 00:04:56;;;;;;;;;;;;;;;10.86;56.35;95560.72;5001999;28;20204;-69
2023/08/05 00:07:21;;;;;;;;;;;;;;;10.67;56.98;95554.88;5005137;28;19921;-70
2023/08/05 00:09:47;;;;;;;;;;;;;;;10.68;57.16;95543.22;5005704;28;19925;-70
2023/08/05 00:12:12;;;;;;;;;;;;;;;10.58;57.86;95546.13;5003228;28;19928;-69
2023/08/05 00:14:37;;;;;;;;;;;;;;;10.44;57.76;95552.25;5007136;28;19925;-69
2023/08/05 00:17:02;;;;;;;;;;;;;;;10.38;58.18;95561.78;5008991;28;19924;-69
2023/08/05 00:19:28;;;;;;;;;;;;;;;10.13;58.65;95556.63;5012357;28;20076;-69
2023/08/05 00:21:53;;;;;;;;;;;;;;;10.06;59.10;95551.19;5000762;28;19945;-70
2023/08/05 00:24:18;;;;;;;;;;;;;;;10.24;58.31;95555.41;5004842;28;20020;-72
2023/08/05 00:26:43;;;;;;;;;;;;;;;10.13;58.52;95550.50;5000838;28;19961;-69
2023/08/05 00:29:09;;;;;;;;;;;;;;;10.49;57.83;95550.72;5005167;28;20105;-70
2023/08/05 00:31:34;;;;;;;;;;;;;;;10.79;56.68;95543.81;5012137;28;20374;-70
2023/08/05 00:33:59;;;;;;;;;;;;;;;10.92;56.03;95545.84;5002232;28;20310;-70
2023/08/05 00:36:24;;;;;;;;;;;;;;;10.99;56.77;95544.13;5018303;28;19921;-70
2023/08/05 00:38:50;;;;;;;;;;;;;;;11.04;55.69;95544.38;5013255;28;19983;-69
2023/08/05 00:41:15;;;;;;;;;;;;;;;10.97;55.52;95532.78;5001324;28;20214;-70
2023/08/05 00:43:40;;;;;;;;;;;;;;;11.00;56.76;95532.44;5012465;28;19923;-70
2023/08/05 00:46:05;;;;;;;;;;;;;;;10.81;56.48;95531.16;5016415;28;20020;-69
2023/08/05 00:48:31;;;;;;;;;;;;;;;10.57;57.57;95530.38;5010355;28;20241;-69
2023/08/05 00:50:56;;;;;;;;;;;;;;;10.44;58.29;95536.28;5008565;28;19914;-69
2023/08/05 00:53:23;;;;;;;;;;;;;;;10.57;58.19;95536.50;5009806;28;20534;-69
2023/08/05 00:55:49;;;;;;;;;;;;;;;10.69;57.20;95544.06;5003185;28;20148;-69
2023/08/05 00:58:14;;;;;;;;;;;;;;;10.69;56.77;95533.41;4999844;28;19947;-69
2023/08/05 01:00:40;;;;;;;;;;;;;;;10.77;56.73;95535.19;5019291;28;20008;-71
2023/08/05 01:03:05;;;;;;;;;;;;;;;10.75;56.52;95544.16;5000468;28;20189;-73
2023/08/05 01:05:30;;;;;;;;;;;;;;;10.54;57.05;95544.84;5006422;28;19924;-71
2023/08/05 01:07:55;;;;;;;;;;;;;;;10.67;58.01;95551.41;5007357;28;19969;-69
2023/08/05 01:10:21;;;;;;;;;;;;;;;10.87;58.58;95557.88;5012714;28;20132;-72
2023/08/05 01:12:46;;;;;;;;;;;;;;;11.04;59.14;95562.19;5005550;28;19963;-72
2023/08/05 01:15:11;;;;;;;;;;;;;;;11.44;58.23;95560.13;5004027;28;20405;-71
2023/08/05 01:17:36;;;;;;;;;;;;;;;11.37;57.96;95559.22;5002817;28;20399;-69
2023/08/05 01:20:02;;;;;;;;;;;;;;;11.58;57.56;95562.97;5000802;28;19969;-70
2023/08/05 01:22:40;;;;;;;;;;;;;;;11.66;57.73;95565.53;5000726;28;19917;-69
2023/08/05 01:25:06;;;;;;;;;;;;;;;11.93;56.91;95571.16;4998896;28;20313;-72
2023/08/05 01:27:32;;;;;;;;;;;;;;;12.05;56.62;95582.19;5003549;28;19924;-71
2023/08/05 01:29:57;;;;;;;;;;;;;;;11.93;57.39;95583.72;5000657;28;20225;-72
2023/08/05 01:32:22;;;;;;;;;;;;;;;11.98;57.47;95582.13;5002190;28;19928;-71
2023/08/05 01:34:47;;;;;;;;;;;;;;;12.09;57.11;95570.16;5024986;28;19927;-68
2023/08/05 01:37:13;;;;;;;;;;;;;;;12.27;56.62;95569.72;5002318;28;20012;-72
2023/08/05 01:39:38;;;;;;;;;;;;;;;12.56;55.78;95575.13;5006749;28;19917;-70
2023/08/05 01:42:03;;;;;;;;;;;;;;;12.25;56.64;95573.59;4995157;28;20290;-72
2023/08/05 01:44:29;;;;;;;;;;;;;;;12.21;56.75;95567.00;5000109;28;19922;-71
2023/08/05 01:46:54;;;;;;;;;;;;;;;11.90;57.66;95571.56;5010265;28;20295;-69
2023/08/05 01:49:19;;;;;;;;;;;;;;;11.84;57.35;95561.63;5000390;28;20425;-72
2023/08/05 01:51:44;;;;;;;;;;;;;;;11.55;58.29;95558.84;5000642;28;20590;-69
2023/08/05 01:54:09;;;;;;;;;;;;;;;11.36;59.05;95563.72;5007809;28;19917;-72
2023/08/05 01:56:35;;;;;;;;;;;;;;;11.12;60.09;95557.66;5002966;28;19936;-72
2023/08/05 01:59:00;;;;;;;;;;;;;;;11.15;60.08;95547.66;5007421;28;20161;-71
2023/08/05 02:01:44;;;;;;;;;;;;;;;11.45;59.43;95540.44;5002338;28;19949;-69
2023/08/05 02:04:09;;;;;;;;;;;;;;;11.67;58.94;95537.03;5000828;28;20386;-69
2023/08/05 02:06:35;;;;;;;;;;;;;;;11.90;57.97;95535.03;5003685;28;19918;-70
2023/08/05 02:09:00;;;;;;;;;;;;;;;11.90;57.63;95535.03;5008030;28;19941;-72
2023/08/05 02:11:25;;;;;;;;;;;;;;;11.65;58.45;95531.88;5011785;28;20309;-70
2023/08/05 02:13:50;;;;;;;;;;;;;;;11.97;57.24;95531.63;5008512;28;20521;-69
2023/08/05 02:16:15;;;;;;;;;;;;;;;12.33;55.84;95528.09;5002766;28;19971;-69
2023/08/05 02:18:41;;;;;;;;;;;;;;;12.51;54.90;95524.97;5008642;28;19918;-71
2023/08/05 02:21:06;;;;;;;;;;;;;;;12.56;55.25;95524.41;5009492;28;19918;-73
2023/08/05 02:23:31;;;;;;;;;;;;;;;12.66;55.43;95511.53;5008075;28;19929;-70
2023/08/05 02:25:56;;;;;;;;;;;;;;;12.75;54.64;95512.19;5009288;28;19932;-69
2023/08/05 02:28:22;;;;;;;;;;;;;;;12.62;54.32;95512.13;5003016;28;20293;-70
2023/08/05 02:30:47;;;;;;;;;;;;;;;12.37;55.21;95518.69;5001752;28;20192;-72
2023/08/05 02:33:12;;;;;;;;;;;;;;;12.50;54.80;95509.13;4995627;28;20189;-68
2023/08/05 02:35:38;;;;;;;;;;;;;;;12.60;54.28;95514.16;4999834;28;19917;-70
2023/08/05 02:38:03;;;;;;;;;;;;;;;12.31;54.85;95508.78;5003474;28;20374;-71
2023/08/05 02:40:31;;;;;;;;;;;;;;;12.30;55.05;95512.47;4999946;28;20261;-72
2023/08/05 02:42:56;;;;;;;;;;;;;;;12.54;54.09;95505.91;5000008;28;19925;-72
2023/08/05 02:45:21;;;;;;;;;;;;;;;12.48;54.30;95503.19;5002948;28;19939;-69
2023/08/05 02:47:46;;;;;;;;;;;;;;;12.37;54.41;95505.34;5000249;28;19924;-70
2023/08/05 02:50:12;;;;;;;;;;;;;;;11.87;55.61;95498.06;5002132;28;20573;-71
2023/08/05 02:52:37;;;;;;;;;;;;;;;11.90;55.77;95495.03;4999439;28;20050;-70
2023/08/05 02:55:03;;;;;;;;;;;;;;;12.18;54.82;95500.66;5000811;28;19925;-69
2023/08/05 02:57:28;;;;;;;;;;;;;;;12.49;54.29;95504.81;5001850;28;19949;-71
2023/08/05 02:59:53;;;;;;;;;;;;;;;12.73;53.53;95506.25;4999967;28;19976;-71
2023/08/05 03:02:18;;;;;;;;;;;;;;;12.82;52.73;95506.94;5002639;28;20378;-70
2023/08/05 03:04:44;;;;;;;;;;;;;;;12.74;52.88;95496.38;5007092;28;19933;-72
2023/08/05 03:07:09;;;;;;;;;;;;;;;12.68;53.08;95495.31;5004492;28;19917;-72
2023/08/05 03:09:34;;;;;;;;;;;;;;;12.63;53.26;95487.91;5013802;28;19929;-73
2023/08/05 03:11:59;;;;;;;;;;;;;;;12.70;53.32;95487.09;5008613;28;20006;-69
2023/08/05 03:14:24;;;;;;;;;;;;;;;12.82;53.00;95482.88;5008440;28;19972;-71
2023/08/05 03:16:50;;;;;;;;;;;;;;;12.95;52.77;95470.63;5016655;28;20286;-70
2023/08/05 03:19:15;;;;;;;;;;;;;;;12.88;52.61;95474.06;5009130;28;19937;-69
2023/08/05 03:21:40;;;;;;;;;;;;;;;12.77;52.42;95480.78;4998105;28;19921;-70
2023/08/05 03:24:05;;;;;;;;;;;;;;;12.66;53.12;95481.34;5008444;28;19917;-70
2023/08/05 03:26:31;;;;;;;;;;;;;;;12.75;52.91;95476.66;5011493;28;20258;-70
2023/08/05 03:28:56;;;;;;;;;;;;;;;12.83;52.52;95481.88;5010870;28;19967;-70
2023/08/05 03:31:21;;;;;;;;;;;;;;;12.93;52.21;95485.00;5020258;28;20299;-70
2023/08/05 03:33:46;;;;;;;;;;;;;;;12.85;52.45;95487.81;5009188;28;20044;-70
2023/08/05 03:36:12;;;;;;;;;;;;;;;12.70;52.76;95487.09;5006362;28;20260;-70
2023/08/05 03:38:37;;;;;;;;;;;;;;;12.58;52.99;95484.16;5009160;28;19924;-70
2023/08/05 03:41:05;;;;;;;;;;;;;;;12.67;53.01;95489.16;5018267;28;19975;-70
2023/08/05 03:43:30;;;;;;;;;;;;;;;12.15;54.81;95486.69;5007906;28;19921;-70
2023/08/05 03:45:56;;;;;;;;;;;;;;;11.97;55.99;95472.94;5015655;28;20455;-70
2023/08/05 03:48:21;;;;;;;;;;;;;;;11.24;57.67;95482.56;4998654;28;19929;-70
2023/08/05 03:50:46;;;;;;;;;;;;;;;11.03;58.46;95480.63;5011884;28;19916;-70
2023/08/05 03:53:11;;;;;;;;;;;;;;;10.55;60.21;95474.66;5011071;28;20345;-70
2023/08/05 03:55:37;;;;;;;;;;;;;;;10.27;61.08;95472.53;5008362;28;20366;-70
2023/08/05 03:58:02;;;;;;;;;;;;;;;9.95;62.31;95477.94;5004701;28;20229;-70
2023/08/05 04:00:28;;;;;;;;;;;;;;;9.86;62.96;95481.63;5009516;28;19921;-70
2023/08/05 04:02:54;;;;;;;;;;;;;;;10.02;62.59;95479.88;5005255;28;19921;-70
2023/08/05 04:05:19;;;;;;;;;;;;;;;9.97;62.70;95475.09;5002924;28;20141;-70
2023/08/05 04:07:46;;;;;;;;;;;;;;;10.13;62.05;95463.53;5000827;28;19932;-70
2023/08/05 04:10:12;;;;;;;;;;;;;;;10.57;60.36;95469.97;5012524;28;19925;-70
2023/08/05 04:12:37;;;;;;;;;;;;;;;10.72;60.47;95472.63;5007083;28;20358;-69
2023/08/05 04:15:03;;;;;;;;;;;;;;;11.13;59.04;95475.88;5012024;28;19917;-69
2023/08/05 04:17:29;;;;;;;;;;;;;;;11.15;59.29;95473.03;5003824;28;20290;-70
2023/08/05 04:19:54;;;;;;;;;;;;;;;10.97;60.00;95483.03;5006330;28;20043;-69
2023/08/05 04:22:22;;;;;;;;;;;;;;;11.56;57.88;95480.50;5005126;28;19925;-70
2023/08/05 04:24:47;;;;;;;;;;;;;;;11.75;58.20;95478.25;5012304;28;19917;-70
2023/08/05 04:27:12;;;;;;;;;;;;;;;11.74;57.02;95474.75;5005337;28;20291;-70
2023/08/05 04:29:37;;;;;;;;;;;;;;;11.86;56.20;95479.56;5008060;28;19922;-70
2023/08/05 04:32:03;;;;;;;;;;;;;;;11.94;56.44;95479.47;5008469;28;20298;-69
2023/08/05 04:34:33;;;;;;;;;;;;;;;12.02;56.09;95481.19;5011692;28;19918;-71
2023/08/05 04:36:58;;;;;;;;;;;;;;;12.23;55.39;95493.72;5008349;28;19971;-71
2023/08/05 04:39:24;;;;;;;;;;;;;;;12.27;55.17;95502.16;5008762;28;19957;-71
2023/08/05 04:41:49;;;;;;;;;;;;;;;12.25;55.34;95501.53;5008982;28;19924;-70
2023/08/05 04:44:14;;;;;;;;;;;;;;;12.37;54.56;95494.66;5010292;28;19917;-71
2023/08/05 04:46:39;;;;;;;;;;;;;;;12.67;56.53;95502.50;5012620;28;20117;-69
2023/08/05 04:49:07;;;;;;;;;;;;;;;12.86;55.77;95500.19;4999018;28;19927;-67
2023/08/05 04:51:33;;;;;;;;;;;;;;;12.83;54.06;95500.56;5002722;28;20146;-67
2023/08/05 04:53:58;;;;;;;;;;;;;;;12.89;53.97;95499.75;5007469;28;20023;-68
2023/08/05 04:56:24;;;;;;;;;;;;;;;13.07;53.29;95495.81;5012242;28;20007;-68
2023/08/05 04:58:49;;;;;;;;;;;;;;;13.11;55.49;95496.22;5002392;28;20003;-67
2023/08/05 05:01:15;;;;;;;;;;;;;;;13.02;55.66;95498.25;5008086;28;20395;-69
2023/08/05 05:03:40;;;;;;;;;;;;;;;13.04;54.52;95505.03;5001118;28;20255;-69
2023/08/05 05:06:05;;;;;;;;;;;;;;;12.91;55.28;95502.25;5002485;28;20036;-66
2023/08/05 05:08:31;;;;;;;;;;;;;;;13.29;53.26;95503.72;5023178;28;19960;-67
2023/08/05 05:10:56;;;;;;;;;;;;;;;13.02;53.71;95509.75;5004350;28;19921;-67
2023/08/05 05:13:21;;;;;;;;;;;;;;;12.97;53.74;95511.31;5014138;28;19982;-67
2023/08/05 05:15:48;;;;;;;;;;;;;;;12.82;54.74;95511.44;5001926;28;19924;-70
2023/08/05 05:18:13;;;;;;;;;;;;;;;12.91;54.99;95508.41;5012412;28;20425;-73
2023/08/05 05:20:38;;;;;;;;;;;;;;;12.96;55.15;95512.34;5003494;28;19951;-69
2023/08/05 05:23:04;;;;;;;;;;;;;;;12.31;56.39;95511.47;4999719;28;20476;-72
2023/08/05 05:25:29;;;;;;;;;;;;;;;12.41;56.22;95508.47;5000247;28;20489;-69
2023/08/05 05:27:54;;;;;;;;;;;;;;;12.83;54.72;95510.41;5004359;28;19924;-72
2023/08/05 05:30:19;;;;;;;;;;;;;;;13.03;54.18;95508.72;5005642;28;19934;-69
2023/08/05 05:32:45;;;;;;;;;;;;;;;12.69;56.19;95504.16;5014315;28;19925;-69
2023/08/05 05:35:10;;;;;;;;;;;;;;;13.15;54.84;95506.34;5017046;28;20398;-69
2023/08/05 05:37:35;;;;;;;;;;;;;;;12.75;55.42;95509.53;5013858;28;19921;-71
2023/08/05 05:40:00;;;;;;;;;;;;;;;12.59;56.73;95513.34;5013795;28;19925;-69
2023/08/05 05:42:25;;;;;;;;;;;;;;;12.90;55.71;95514.78;5006504;28;19917;-69
2023/08/05 05:44:52;;;;;;;;;;;;;;;13.03;55.66;95516.72;5010765;28;19925;-70
2023/08/05 05:47:21;;;;;;;;;;;;;;;13.15;53.68;95509.00;5007099;28;20384;-69
2023/08/05 05:49:46;;;;;;;;;;;;;;;13.36;52.27;95501.91;5000417;28;19929;-69
2023/08/05 05:52:15;;;;;;;;;;;;;;;13.43;52.73;95504.63;5010903;28;19913;-69
2023/08/05 05:54:40;;;;;;;;;;;;;;;13.35;51.91;95499.41;5011894;28;20377;-70
2023/08/05 05:57:06;;;;;;;;;;;;;;;13.50;51.98;95496.63;5000693;28;19945;-70
2023/08/05 05:59:31;;;;;;;;;;;;;;;13.80;51.94;95496.28;5005471;28;20159;-69
2023/08/05 06:01:56;;;;;;;;;;;;;;;14.10;51.73;95492.50;5010771;28;19917;-69
2023/08/05 06:04:24;;;;;;;;;;;;;;;14.37;50.74;95490.66;5012247;28;20162;-70
2023/08/05 06:06:49;;;;;;;;;;;;;;;14.68;50.16;95483.03;5000445;28;19923;-69
2023/08/05 06:09:15;;;;;;;;;;;;;;;14.88;49.27;95480.34;5008240;28;19937;-69
2023/08/05 06:11:40;;;;;;;;;;;;;;;15.09;49.04;95470.41;5016051;28;19917;-68
2023/08/05 06:14:05;;;;;;;;;;;;;;;15.17;48.32;95472.88;5002094;28;19922;-70
2023/08/05 06:16:32;;;;;;;;;;;;;;;15.33;48.34;95468.09;5003690;28;19921;-69
2023/08/05 06:18:57;;;;;;;;;;;;;;;15.51;48.31;95474.59;5003229;28;20386;-68
2023/08/05 06:21:22;;;;;;;;;;;;;;;15.62;47.05;95468.59;4994322;28;19947;-70
2023/08/05 06:23:47;;;;;;;;;;;;;;;15.63;46.98;95470.25;5006636;28;20496;-68
2023/08/05 06:26:13;;;;;;;;;;;;;;;15.75;46.56;95465.84;5006234;28;19929;-69
2023/08/05 06:28:38;;;;;;;;;;;;;;;15.96;47.37;95471.09;5008715;28;19936;-69
2023/08/05 06:31:03;;;;;;;;;;;;;;;15.99;45.47;95476.88;5005547;28;19917;-69
2023/08/05 06:33:28;;;;;;;;;;;;;;;16.17;45.71;95483.34;5010367;28;19997;-69
2023/08/05 06:35:54;;;;;;;;;;;;;;;16.36;45.75;95488.84;5001698;28;20307;-69
2023/08/05 06:38:20;;;;;;;;;;;;;;;16.45;44.81;95478.66;5009080;28;20160;-69
2023/08/05 06:40:46;;;;;;;;;;;;;;;16.48;44.68;95475.50;5004568;28;19917;-69
2023/08/05 06:43:11;;;;;;;;;;;;;;;16.75;45.39;95472.59;5009675;28;20096;-68
2023/08/05 06:45:36;;;;;;;;;;;;;;;16.74;43.91;95469.09;5008969;28;19929;-69
2023/08/05 06:48:01;;;;;;;;;;;;;;;16.92;44.24;95467.47;4998510;28;19918;-69
2023/08/05 06:50:27;;;;;;;;;;;;;;;17.14;43.90;95451.75;5009747;28;19924;-69
2023/08/05 06:52:52;;;;;;;;;;;;;;;17.18;44.08;95456.69;5015492;28;20106;-69
2023/08/05 06:55:18;;;;;;;;;;;;;;;17.13;44.57;95454.66;5013864;28;19932;-69
2023/08/05 06:57:45;;;;;;;;;;;;;;;17.13;44.17;95451.97;5010760;28;19924;-68
2023/08/05 07:00:10;;;;;;;;;;;;;;;16.95;44.41;95450.06;5015439;28;20357;-69
2023/08/05 07:02:36;;;;;;;;;;;;;;;17.12;44.68;95451.16;5007306;28;19917;-69
2023/08/05 07:05:01;;;;;;;;;;;;;;;17.31;42.15;95445.78;5003548;28;19976;-69
2023/08/05 07:07:26;;;;;;;;;;;;;;;17.78;42.93;95444.34;5005005;28;19925;-69
2023/08/05 07:09:52;;;;;;;;;;;;;;;18.09;41.46;95441.66;5005487;28;20120;-69
2023/08/05 07:12:17;;;;;;;;;;;;;;;18.37;41.59;95432.09;5011432;28;19928;-69
2023/08/05 07:14:44;;;;;;;;;;;;;;;18.34;40.85;95446.03;5003994;28;20313;-69
2023/08/05 07:17:10;;;;;;;;;;;;;;;17.34;43.13;95441.81;5003762;28;19929;-69
2023/08/05 07:19:35;;;;;;;;;;;;;;;16.67;43.42;95435.25;5010937;28;19925;-69
2023/08/05 07:22:00;;;;;;;;;;;;;;;17.94;42.41;95442.91;4997741;28;19918;-69
2023/08/05 07:24:26;;;;;;;;;;;;;;;18.36;41.13;95443.94;5005657;28;19957;-69
2023/08/05 07:26:51;;;;;;;;;;;;;;;18.13;41.49;95443.66;5002808;28;19922;-69
2023/08/05 07:29:16;;;;;;;;;;;;;;;18.29;41.86;95441.34;5005169;28;20278;-69
2023/08/05 07:31:41;;;;;;;;;;;;;;;17.95;41.63;95444.53;5003759;28;19953;-69
2023/08/05 07:34:08;;;;;;;;;;;;;;;17.87;42.54;95452.94;5010748;28;19921;-69
2023/08/05 07:36:33;;;;;;;;;;;;;;;18.02;41.66;95450.66;5006683;28;19925;-69
2023/08/05 07:39:00;;;;;;;;;;;;;;;15.76;45.98;95453.25;5012527;28;19959;-69
2023/08/05 07:41:26;;;;;;;;;;;;;;;16.94;44.57;95451.94;5005566;28;19983;-69
2023/08/05 07:43:54;;;;;;;;;;;;;;;17.32;43.84;95443.88;5006202;28;19976;-69
2023/08/05 07:46:20;;;;;;;;;;;;;;;17.35;43.18;95448.81;5000828;28;20315;-69
2023/08/05 07:48:47;;;;;;;;;;;;;;;17.25;43.09;95441.28;5003945;28;20364;-69
2023/08/05 07:51:12;;;;;;;;;;;;;;;17.14;43.20;95432.09;5011470;28;19917;-69
2023/08/05 07:53:38;;;;;;;;;;;;;;;17.38;42.99;95429.53;5000823;28;19921;-69
2023/08/05 07:56:12;;;;;;;;;;;;;;;17.31;42.32;95435.03;5008892;28;20303;-69
2023/08/05 07:58:40;;;;;;;;;;;;;;;17.17;41.88;95428.97;5031677;28;20293;-80
2023/08/05 08:01:06;;;;;;;;;;;;;;;17.20;42.82;95417.75;5001644;28;19920;-79
2023/08/05 08:03:31;;;;;;;;;;;;;;;17.57;42.67;95410.69;5011089;28;20452;-78
2023/08/05 08:05:57;;;;;;;;;;;;;;;18.01;42.79;95407.78;4987563;28;20028;-80
2023/08/05 08:08:23;;;;;;;;;;;;;;;17.31;43.66;95415.34;5022027;28;20001;-81
2023/08/05 08:10:48;;;;;;;;;;;;;;;18.07;41.63;95401.47;4989951;28;20344;-78
2023/08/05 08:13:13;;;;;;;;;;;;;;;18.05;41.48;95398.19;4997885;28;19925;-80
2023/08/05 08:15:38;;;;;;;;;;;;;;;17.84;41.11;95408.41;5008419;28;19957;-80
2023/08/05 08:18:04;;;;;;;;;;;;;;;17.65;41.03;95399.59;5007381;28;20160;-79
2023/08/05 08:20:29;;;;;;;;;;;;;;;17.55;41.65;95400.16;5035896;28;19916;-78
2023/08/05 08:22:54;;;;;;;;;;;;;;;17.58;41.35;95393.47;5005637;28;20373;-78
2023/08/05 08:25:19;;;;;;;;;;;;;;;17.56;41.92;95390.19;5014700;28;19928;-78
2023/08/05 08:27:45;;;;;;;;;;;;;;;17.44;42.60;95393.66;5010057;28;19983;-80
2023/08/05 08:30:11;;;;;;;;;;;;;;;16.93;42.86;95399.19;5035177;28;20404;-78
2023/08/05 08:32:36;;;;;;;;;;;;;;;17.41;41.46;95394.13;5026859;28;19929;-80
2023/08/05 08:35:02;;;;;;;;;;;;;;;17.57;41.38;95395.34;5036415;28;19993;-79
2023/08/05 08:37:28;;;;;;;;;;;;;;;17.06;43.31;95402.81;5030592;28;19921;-79
2023/08/05 08:39:53;;;;;;;;;;;;;;;17.63;41.79;95391.75;5005112;28;20453;-78
2023/08/05 08:42:19;;;;;;;;;;;;;;;17.76;41.63;95390.75;4994428;28;19921;-78
2023/08/05 08:44:44;;;;;;;;;;;;;;;17.49;40.30;95392.97;5004724;28;20000;-76
2023/08/05 08:47:09;;;;;;;;;;;;;;;17.30;40.73;95384.94;4987026;28;19913;-79
2023/08/05 08:49:35;;;;;;;;;;;;;;;17.75;40.43;95389.06;5008453;28;19925;-79
2023/08/05 08:52:00;;;;;;;;;;;;;;;17.94;40.59;95391.72;5014989;28;19960;-78
2023/08/05 08:54:26;;;;;;;;;;;;;;;17.91;40.30;95381.41;5007001;28;19921;-80
2023/08/05 08:56:51;;;;;;;;;;;;;;;18.29;39.80;95374.81;5035837;28;20282;-80
2023/08/05 08:59:17;;;;;;;;;;;;;;;18.35;40.11;95372.25;5013664;28;19978;-78
2023/08/05 09:01:42;;;;;;;;;;;;;;;18.44;38.59;95362.75;5032535;28;19920;-78
2023/08/05 09:04:08;;;;;;;;;;;;;;;18.82;38.13;95371.41;5007307;28;20460;-78
2023/08/05 09:06:33;;;;;;;;;;;;;;;18.62;38.43;95379.84;5023249;28;20126;-76
2023/08/05 09:08:58;;;;;;;;;;;;;;;17.50;40.71;95381.97;5026291;28;20441;-79
2023/08/05 09:11:23;;;;;;;;;;;;;;;17.24;40.65;95388.53;5007543;28;20294;-79
2023/08/05 09:13:50;;;;;;;;;;;;;;;15.95;45.17;95389.72;5026436;28;20108;-77
2023/08/05 09:16:15;;;;;;;;;;;;;;;15.82;44.76;95390.66;4997421;28;20520;-75
2023/08/05 09:18:53;;;;;;;;;;;;;;;17.23;41.78;95390.41;4988125;28;20212;-78
2023/08/05 09:21:22;;;;;;;;;;;;;;;16.04;44.29;95376.88;5004205;28;19999;-76
2023/08/05 09:23:47;;;;;;;;;;;;;;;14.97;47.54;95384.47;5032992;28;19962;-77
2023/08/05 09:26:12;;;;;;;;;;;;;;;16.75;42.81;95371.28;5016282;28;20012;-79
2023/08/05 09:28:39;;;;;;;;;;;;;;;16.38;43.10;95363.16;5019420;28;20284;-79
2023/08/05 09:31:14;;;;;;;;;;;;;;;16.82;40.69;95373.09;5014579;28;19995;-78
2023/08/05 09:33:40;;;;;;;;;;;;;;;18.07;38.79;95358.38;5025226;28;19921;-76
2023/08/05 09:36:10;;;;;;;;;;;;;;;18.29;36.37;95365.91;5014253;28;19998;-78
2023/08/05 09:38:36;;;;;;;;;;;;;;;18.96;35.45;95355.78;5010214;28;20323;-79
2023/08/05 09:41:01;;;;;;;;;;;;;;;19.15;35.72;95358.31;5021132;28;20021;-75
2023/08/05 09:43:34;;;;;;;;;;;;;;;19.40;35.52;95352.63;5024816;28;19917;-78
2023/08/05 09:46:02;;;;;;;;;;;;;;;18.07;38.71;95347.63;5012355;28;20290;-79
2023/08/05 09:48:28;;;;;;;;;;;;;;;17.71;36.82;95336.75;4999592;28;20132;-78
2023/08/05 09:50:54;;;;;;;;;;;;;;;19.20;36.29;95332.25;5004166;28;19916;-80
2023/08/05 09:53:19;;;;;;;;;;;;;;;19.14;35.57;95333.22;5005176;28;20209;-77
2023/08/05 09:55:44;;;;;;;;;;;;;;;19.33;35.07;95328.47;5005377;28;19917;-79
2023/08/05 09:58:10;;;;;;;;;;;;;;;20.09;35.21;95331.13;5021245;28;20129;-78
2023/08/05 10:00:35;;;;;;;;;;;;;;;19.97;35.65;95328.50;5027427;28;20199;-78
2023/08/05 10:03:00;;;;;;;;;;;;;;;17.73;37.55;95331.97;4990309;28;20053;-79
2023/08/05 10:05:26;;;;;;;;;;;;;;;19.76;34.67;95333.56;5007911;28;20389;-79
2023/08/05 10:07:53;;;;;;;;;;;;;;;20.36;34.85;95325.84;5011946;28;20290;-79
2023/08/05 10:10:20;;;;;;;;;;;;;;;20.12;34.35;95319.81;5019992;28;20302;-79
2023/08/05 10:12:47;;;;;;;;;;;;;;;18.89;36.45;95320.03;5023986;28;20162;-78
2023/08/05 10:15:32;;;;;;;;;;;;;;;20.13;33.94;95326.88;5025829;28;19925;-80
2023/08/05 10:17:58;;;;;;;;;;;;;;;19.87;34.37;95312.94;5022225;28;19921;-79
2023/08/05 10:20:23;;;;;;;;;;;;;;;20.47;32.28;95320.59;4991047;28;19980;-79
2023/08/05 10:27:59;;;;;;;;;;;;;;;20.45;33.08;95314.63;5977791;23;19917;-80
2023/08/05 10:30:25;;;;;;;;;;;;;;;21.16;32.60;95323.09;5459712;23;19928;-80
2023/08/05 10:32:51;;;;;;;;;;;;;;;21.28;33.17;95302.13;5038497;28;19909;-81
2023/08/05 10:35:28;;;;;;;;;;;;;;;21.96;32.01;95302.78;5024672;28;19968;-80
2023/08/05 10:38:04;;;;;;;;;;;;;;;22.25;31.44;95291.59;5050487;28;19917;-80
2023/08/05 10:40:47;;;;;;;;;;;;;;;22.53;29.15;95292.31;5034533;28;19999;-80
2023/08/05 10:43:30;;;;;;;;;;;;;;;19.50;33.40;95291.78;5034829;28;19931;-80
2023/08/05 10:45:55;;;;;;;;;;;;;;;21.05;30.59;95287.00;5015553;28;20077;-80
2023/08/05 10:48:20;;;;;;;;;;;;;;;20.62;32.64;95292.94;5017088;28;20180;-81
2023/08/05 10:50:46;;;;;;;;;;;;;;;21.35;33.10;95293.84;5027923;28;19921;-80
2023/08/05 10:53:12;;;;;;;;;;;;;;;21.88;31.74;95285.91;5021433;28;20298;-82
2023/08/05 10:55:50;;;;;;;;;;;;;;;22.17;31.50;95284.78;5021444;28;20075;-81
2023/08/05 10:58:15;;;;;;;;;;;;;;;23.22;29.06;95286.09;5027527;28;20110;-81
2023/08/05 11:00:42;;;;;;;;;;;;;;;23.23;29.66;95283.13;5031875;28;19927;-80
2023/08/05 11:03:20;;;;;;;;;;;;;;;22.84;29.60;95280.81;5017274;28;19944;-80
2023/08/05 11:05:47;;;;;;;;;;;;;;;22.87;28.81;95275.66;5019446;28;19941;-80
2023/08/05 11:08:12;;;;;;;;;;;;;;;22.46;29.73;95275.44;5063308;23;20264;-81
2023/08/05 11:10:37;;;;;;;;;;;;;;;22.58;30.64;95272.56;5007050;28;20041;-81
2023/08/05 11:13:02;;;;;;;;;;;;;;;22.86;28.60;95271.31;5004179;28;19918;-80
2023/08/05 11:15:28;;;;;;;;;;;;;;;22.91;28.57;95267.81;5004760;28;19915;-82
2023/08/05 11:17:54;;;;;;;;;;;;;;;22.65;28.32;95262.28;5015258;28;19921;-80
2023/08/05 11:20:19;;;;;;;;;;;;;;;22.26;29.04;95264.22;5010992;28;19917;-80
2023/08/05 11:22:45;;;;;;;;;;;;;;;22.59;28.79;95249.78;5010438;28;19917;-81
2023/08/05 11:25:12;;;;;;;;;;;;;;;22.26;30.20;95247.13;5002434;28;19944;-81
2023/08/05 11:27:39;;;;;;;;;;;;;;;22.87;29.18;95237.66;5010344;28;20095;-80
2023/08/05 11:30:16;;;;;;;;;;;;;;;20.88;31.22;95239.19;5005015;28;20128;-81
2023/08/05 11:32:48;;;;;;;;;;;;;;;22.98;28.27;95227.66;4982599;28;20008;-79
2023/08/05 11:35:13;;;;;;;;;;;;;;;23.61;26.42;95219.59;4996098;28;19925;-78
2023/08/05 11:37:38;;;;;;;;;;;;;;;23.75;27.30;95223.44;4977083;28;19917;-79
2023/08/05 11:40:04;;;;;;;;;;;;;;;23.33;28.39;95222.59;4966827;28;19918;-80
2023/08/05 11:42:29;;;;;;;;;;;;;;;24.00;25.85;95213.59;4994711;28;19964;-78
2023/08/05 11:44:55;;;;;;;;;;;;;;;23.21;27.00;95211.97;4987275;28;19918;-78
2023/08/05 11:47:20;;;;;;;;;;;;;;;23.83;27.20;95204.97;4987180;28;20338;-78
2023/08/05 11:49:52;;;;;;;;;;;;;;;23.89;25.92;95201.94;4981864;28;20004;-78
2023/08/05 11:52:17;;;;;;;;;;;;;;;22.94;28.12;95198.63;4985684;28;19924;-79
2023/08/05 11:54:44;;;;;;;;;;;;;;;23.41;26.49;95196.78;4983323;28;19914;-78
2023/08/05 11:57:19;;;;;;;;;;;;;;;23.26;27.05;95194.88;4987604;28;20390;-79
2023/08/05 11:59:45;;;;;;;;;;;;;;;23.47;27.06;95192.16;4981204;28;20418;-80
2023/08/05 12:02:10;;;;;;;;;;;;;;;23.29;27.84;95180.78;4987335;28;19977;-80
2023/08/05 12:04:48;;;;;;;;;;;;;;;23.86;26.87;95180.75;4990430;28;19926;-79
2023/08/05 12:07:14;;;;;;;;;;;;;;;22.92;28.61;95186.13;4963520;28;19920;-80
2023/08/05 12:09:42;;;;;;;;;;;;;;;22.64;29.11;95182.00;4982532;28;20377;-80
2023/08/05 12:12:16;;;;;;;;;;;;;;;23.44;26.32;95188.09;4991322;28;19922;-79
2023/08/05 12:14:42;;;;;;;;;;;;;;;23.84;26.31;95174.78;4988813;28;20383;-80
2023/08/05 12:17:07;;;;;;;;;;;;;;;20.80;30.68;95177.44;4986735;28;19918;-80
2023/08/05 12:19:32;;;;;;;;;;;;;;;22.45;30.19;95177.00;4986265;28;19932;-79
2023/08/05 12:21:57;;;;;;;;;;;;;;;23.49;27.66;95173.72;4976865;28;20493;-80
2023/08/05 12:24:23;;;;;;;;;;;;;;;23.34;29.24;95174.50;4990175;28;19922;-79
2023/08/05 12:26:48;;;;;;;;;;;;;;;23.88;26.41;95162.28;4987897;28;19914;-80
2023/08/05 12:29:13;;;;;;;;;;;;;;;23.81;28.27;95162.56;4998108;28;19925;-80
2023/08/05 12:31:38;;;;;;;;;;;;;;;23.97;26.81;95159.00;4987815;28;19917;-80
2023/08/05 12:34:04;;;;;;;;;;;;;;;24.12;28.09;95156.22;4981740;28;19929;-80
2023/08/05 12:36:29;;;;;;;;;;;;;;;23.30;26.75;95153.34;4983517;28;19918;-79
2023/08/05 12:38:55;;;;;;;;;;;;;;;23.26;26.95;95152.28;4989745;28;19960;-80
2023/08/05 12:41:20;;;;;;;;;;;;;;;23.47;26.23;95151.44;4986776;28;19933;-80
2023/08/05 12:43:45;;;;;;;;;;;;;;;23.65;26.45;95145.44;4988709;28;19929;-79
2023/08/05 12:46:10;;;;;;;;;;;;;;;22.15;28.46;95146.81;4979668;28;19930;-80